Time;durP1;ratioP1;P1;durP2;ratioP2;P2;SDS_P1;SDS_P2;PMS_P1;PMS_P2;Temp;Humidity;BMP_temperature;BMP_pressure;BME280_temperature;BME280_humidity;BME280_pressure;Samples;Min_cycle;Max_cycle;Signal;HPM_P1;HPM_P2
2022/09/08 06:14:35;;;;;;;2.30;1.40;;;26.90;75.20;;;;;;5113253;27;20446;-84
2022/09/08 06:17:02;;;;;;;3.20;1.40;;;26.90;75.60;;;;;;5096030;28;20986;-85
2022/09/08 06:19:29;;;;;;;1.67;1.57;;;26.90;75.90;;;;;;5095906;28;20521;-86
2022/09/08 06:21:57;;;;;;;3.23;2.30;;;26.90;75.90;;;;;;5096028;28;20446;-86
2022/09/08 06:24:24;;;;;;;2.40;2.20;;;26.70;78.30;;;;;;5095591;28;20432;-86
2022/09/08 06:26:59;;;;;;;2.63;2.37;;;26.40;79.70;;;;;;5095989;28;20472;-87
2022/09/08 06:29:38;;;;;;;3.03;2.37;;;26.20;80.60;;;;;;5095990;28;20432;-87
2022/09/08 06:32:23;;;;;;;2.70;2.50;;;26.00;81.30;;;;;;5095910;28;20437;-86
2022/09/08 06:34:55;;;;;;;3.30;2.77;;;25.90;81.90;;;;;;5095754;28;20442;-86
2022/09/08 06:37:33;;;;;;;3.17;2.73;;;25.80;82.40;;;;;;5095690;28;20479;-86
2022/09/08 06:40:05;;;;;;;4.50;2.90;;;25.70;83.00;;;;;;5095816;28;20779;-85
2022/09/08 06:42:40;;;;;;;3.30;3.00;;;25.60;83.40;;;;;;5095852;28;20456;-86
2022/09/08 06:45:18;;;;;;;4.60;2.67;;;25.50;83.90;;;;;;5095716;28;20442;-87
2022/09/08 06:47:52;;;;;;;3.50;3.30;;;25.40;84.30;;;;;;5092596;28;20448;-86
2022/09/08 06:50:20;;;;;;;2.90;2.70;;;25.30;84.20;;;;;;5095645;28;20536;-87
2022/09/08 06:52:49;;;;;;;8.33;3.27;;;25.30;84.30;;;;;;5095427;28;20440;-87
2022/09/08 06:55:24;;;;;;;3.93;2.73;;;25.40;84.00;;;;;;5095378;28;20438;-86
2022/09/08 06:58:06;;;;;;;4.47;3.00;;;25.30;84.80;;;;;;5095129;28;20494;-86
2022/09/08 07:00:43;;;;;;;4.03;2.50;;;25.30;85.10;;;;;;5095288;28;20444;-86
2022/09/08 07:03:19;;;;;;;5.77;2.60;;;25.20;85.20;;;;;;5095293;28;20451;-86
2022/09/08 07:05:58;;;;;;;3.70;2.73;;;25.40;84.60;;;;;;5094873;28;20462;-86
2022/09/08 07:08:45;;;;;;;2.60;2.40;;;25.60;83.60;;;;;;5095371;28;20493;-85
2022/09/08 07:11:24;;;;;;;4.93;2.07;;;25.80;82.70;;;;;;5095001;28;20439;-85
2022/09/08 07:14:02;;;;;;;4.20;2.30;;;25.90;82.90;;;;;;5091148;28;20824;-86
2022/09/08 07:16:38;;;;;;;2.50;2.30;;;26.00;81.20;;;;;;5094374;28;20525;-87
2022/09/08 07:19:13;;;;;;;4.60;2.87;;;25.90;82.40;;;;;;5094852;28;20493;-88
2022/09/08 07:21:46;;;;;;;2.70;2.50;;;26.00;83.50;;;;;;5093213;28;20439;-87
2022/09/08 07:24:17;;;;;;;2.37;2.00;;;26.00;82.60;;;;;;5083009;28;20441;-87
2022/09/08 07:26:50;;;;;;;4.10;1.97;;;26.20;82.00;;;;;;5084390;28;20429;-87
2022/09/08 07:29:22;;;;;;;2.13;1.67;;;26.20;81.20;;;;;;5086076;28;20935;-84
2022/09/08 07:31:52;;;;;;;17.13;2.10;;;26.30;80.60;;;;;;5074704;28;20436;-84
2022/09/08 07:34:22;;;;;;;1.67;1.57;;;26.30;80.10;;;;;;5074065;28;20441;-83
2022/09/08 07:36:58;;;;;;;7.13;2.03;;;26.40;79.70;;;;;;5073901;28;20454;-86
2022/09/08 07:39:33;;;;;;;2.63;1.80;;;26.50;79.60;;;;;;5075766;28;20444;-84
2022/09/08 07:42:02;;;;;;;2.70;1.77;;;26.50;79.40;;;;;;5094164;28;20462;-87
2022/09/08 07:44:29;;;;;;;1.87;1.50;;;26.60;79.20;;;;;;5094199;28;20484;-84
2022/09/08 07:47:24;;;;;;;3.00;1.80;;;26.50;78.80;;;;;;5094775;28;20435;-88
2022/09/08 07:49:59;;;;;;;1.93;1.83;;;26.70;78.50;;;;;;5094214;28;20451;-85
2022/09/08 07:52:34;;;;;;;1.77;1.43;;;26.60;78.30;;;;;;5093991;28;20455;-85
2022/09/08 07:55:13;;;;;;;1.87;1.63;;;26.70;78.10;;;;;;5093493;28;20906;-84
2022/09/08 07:57:48;;;;;;;3.10;1.40;;;26.70;78.00;;;;;;5093244;28;20478;-87
2022/09/08 08:00:21;;;;;;;2.13;1.40;;;26.70;77.80;;;;;;5093045;28;20443;-86
2022/09/08 08:03:15;;;;;;;1.40;1.30;;;26.70;77.80;;;;;;5093135;28;20436;-85
2022/09/08 08:05:46;;;;;;;3.03;1.70;;;26.80;77.60;;;;;;5093244;28;20440;-87
2022/09/08 08:08:26;;;;;;;1.73;1.47;;;26.80;77.60;;;;;;5093327;28;20450;-85
2022/09/08 08:11:03;;;;;;;2.70;1.90;;;26.80;77.40;;;;;;5093735;28;20485;-84
2022/09/08 08:13:46;;;;;;;1.73;1.63;;;26.80;77.40;;;;;;5094048;28;20439;-85
2022/09/08 08:16:15;;;;;;;1.60;1.50;;;26.80;77.30;;;;;;5107451;28;20479;-84
2022/09/08 08:18:54;;;;;;;2.20;1.80;;;26.80;77.20;;;;;;5113899;28;20482;-84
2022/09/08 08:21:26;;;;;;;3.70;1.50;;;26.80;77.10;;;;;;5114266;28;20534;-85
2022/09/08 08:24:13;;;;;;;1.60;1.50;;;26.80;77.10;;;;;;5101674;28;20988;-85
2022/09/08 08:26:49;;;;;;;2.50;2.13;;;26.90;76.90;;;;;;5093028;28;20444;-84
2022/09/08 08:29:31;;;;;;;2.20;1.90;;;26.90;77.00;;;;;;5093390;28;20454;-84
2022/09/08 08:32:03;;;;;;;5.60;1.60;;;26.90;76.80;;;;;;5093696;28;20915;-92
2022/09/08 11:30:41;;;;;;;1.47;1.37;;;27.50;76.10;;;;;;5077871;28;20506;-85
2022/09/08 11:33:19;;;;;;;2.20;1.10;;;27.40;76.20;;;;;;5074193;28;20470;-87
2022/09/08 11:36:02;;;;;;;1.50;1.10;;;27.50;76.30;;;;;;5075175;28;20943;-85
2022/09/08 11:38:56;;;;;;;1.23;1.13;;;27.50;77.10;;;;;;5075070;28;20514;-85
2022/09/08 11:42:00;;;;;;;1.53;1.20;;;27.50;76.10;;;;;;5074648;28;20790;-86
2022/09/08 11:44:48;;;;;;;1.70;1.20;;;27.60;76.10;;;;;;5074041;28;20446;-89
2022/09/08 11:48:02;;;;;;;1.30;1.00;;;27.60;76.00;;;;;;5082942;28;21010;-84
2022/09/08 11:51:12;;;;;;;2.63;0.90;;;27.60;76.00;;;;;;5057713;28;20505;-83
2022/09/08 11:54:03;;;;;;;1.40;1.30;;;27.50;75.80;;;;;;5093417;28;20444;-83
2022/09/08 11:57:07;;;;;;;2.40;1.13;;;27.60;75.90;;;;;;5094231;28;20935;-87
2022/09/08 11:59:57;;;;;;;1.10;1.00;;;27.60;75.90;;;;;;5091866;28;20475;-88
2022/09/08 12:02:54;;;;;;;2.83;1.57;;;27.60;76.10;;;;;;5093974;28;20518;-88
2022/09/08 12:05:25;;;;;;;1.27;1.00;;;27.60;75.90;;;;;;5094079;28;20459;-87
2022/09/08 12:08:20;;;;;;;3.07;1.10;;;27.60;76.00;;;;;;5094729;28;20487;-89
2022/09/08 12:11:02;;;;;;;4.27;1.80;;;27.60;75.70;;;;;;5094031;28;20448;-89
2022/09/08 12:13:39;;;;;;;2.13;1.13;;;27.50;75.90;;;;;;5088767;28;20451;-87
2022/09/08 12:16:25;;;;;;;1.10;1.00;;;27.60;76.00;;;;;;5097389;28;20526;-93
2022/09/08 12:19:03;;;;;;;1.27;1.17;;;27.60;75.80;;;;;;5117649;28;20506;-89
2022/09/08 12:22:05;;;;;;;2.80;1.10;;;27.50;76.60;;;;;;5103947;28;20978;-93
2022/09/08 12:24:57;;;;;;;2.43;1.30;;;27.50;75.70;;;;;;5095427;28;20432;-91
2022/09/08 12:27:39;;;;;;;1.10;1.00;;;27.50;75.70;;;;;;5094140;28;20783;-92
2022/09/08 12:30:13;;;;;;;1.77;1.03;;;27.50;75.80;;;;;;5087100;28;20473;-93
2022/09/08 12:33:01;;;;;;;6.43;1.10;;;27.50;75.60;;;;;;5073909;28;20520;-93
2022/09/08 12:35:33;;;;;;;3.40;1.03;;;27.50;75.60;;;;;;5048404;28;20527;-88
2022/09/08 12:38:37;;;;;;;3.50;1.37;;;27.50;75.60;;;;;;5093539;28;20840;-91
2022/09/08 12:41:36;;;;;;;1.20;1.10;;;27.50;75.70;;;;;;5095209;28;20424;-89
2022/09/08 12:44:11;;;;;;;1.40;1.30;;;27.50;76.00;;;;;;5091036;28;20503;-88
2022/09/08 12:46:49;;;;;;;2.00;1.00;;;27.50;76.20;;;;;;5094605;28;20435;-93
2022/09/08 12:49:57;;;;;;;3.87;1.40;;;27.50;76.10;;;;;;5095631;28;20443;-87
2022/09/08 12:52:46;;;;;;;2.70;1.10;;;27.60;76.00;;;;;;5093681;28;20463;-93
2022/09/08 12:55:19;;;;;;;1.33;0.90;;;27.50;76.10;;;;;;5093598;28;20454;-86
2022/09/08 12:58:01;;;;;;;1.40;1.10;;;27.50;76.10;;;;;;5085658;28;20444;-86
2022/09/08 13:00:31;;;;;;;3.20;1.03;;;27.50;76.10;;;;;;5093815;28;20456;-89
2022/09/08 13:03:29;;;;;;;3.63;1.40;;;27.50;76.10;;;;;;5094082;28;21006;-89
2022/09/08 13:06:24;;;;;;;1.13;1.00;;;27.50;75.90;;;;;;5054783;28;20452;-89
2022/09/08 13:08:59;;;;;;;2.77;1.00;;;27.60;76.00;;;;;;5097535;28;20515;-88
2022/09/08 13:12:11;;;;;;;2.37;1.20;;;27.60;76.00;;;;;;5097879;28;20442;-94
2022/09/08 13:14:50;;;;;;;2.03;1.00;;;27.60;75.90;;;;;;5079899;28;20446;-84
2022/09/08 13:17:26;;;;;;;1.33;1.23;;;27.60;76.10;;;;;;5097382;28;20930;-91
2022/09/08 13:20:19;;;;;;;3.33;0.90;;;27.60;75.70;;;;;;5097444;28;20574;-92
2022/09/08 13:23:10;;;;;;;4.80;1.40;;;27.60;75.20;;;;;;5097645;28;20542;-91
2022/09/08 13:25:44;;;;;;;1.00;0.87;;;27.50;75.00;;;;;;5094572;28;20440;-96
2022/09/08 13:28:24;;;;;;;4.80;1.00;;;27.50;74.90;;;;;;5098597;28;20448;-96
2022/09/08 13:31:04;;;;;;;1.40;0.80;;;27.50;74.80;;;;;;5118328;28;20485;-96
2022/09/08 13:33:51;;;;;;;1.10;1.00;;;27.50;74.80;;;;;;5120071;28;20510;-95
2022/09/08 13:36:40;;;;;;;1.30;0.77;;;27.50;74.70;;;;;;5119845;28;20430;-91
2022/09/08 13:39:30;;;;;;;1.63;0.90;;;27.50;74.50;;;;;;5117402;28;20482;-89
2022/09/08 13:42:21;;;;;;;1.33;0.97;;;27.50;74.50;;;;;;5105836;28;20450;-87
2022/09/08 13:45:07;;;;;;;2.83;1.00;;;27.50;74.40;;;;;;5093258;28;20451;-96
2022/09/08 13:48:03;;;;;;;2.60;0.90;;;27.40;74.30;;;;;;5101602;28;20443;-92
2022/09/08 13:50:47;;;;;;;1.00;0.90;;;27.50;74.40;;;;;;5096783;28;20763;-87
2022/09/08 13:53:34;;;;;;;1.20;1.10;;;27.50;74.40;;;;;;5096534;28;20455;-88
2022/09/08 13:56:21;;;;;;;1.00;0.90;;;27.50;74.90;;;;;;5096828;28;20442;-88
2022/09/08 13:58:49;;;;;;;1.10;1.00;;;27.50;75.20;;;;;;5096561;28;20481;-87
2022/09/08 14:01:36;;;;;;;2.10;1.50;;;27.50;75.30;;;;;;5096589;28;20440;-88
2022/09/08 14:04:10;;;;;;;1.10;1.00;;;27.50;75.30;;;;;;5096325;28;20436;-87
2022/09/08 14:06:43;;;;;;;1.10;1.00;;;27.50;75.40;;;;;;5096032;28;20439;-88
2022/09/08 14:09:19;;;;;;;1.20;1.10;;;27.50;75.50;;;;;;5096233;28;20476;-89
2022/09/08 14:11:54;;;;;;;1.47;1.13;;;27.50;75.30;;;;;;5096786;28;20531;-90
2022/09/08 14:15:01;;;;;;;1.23;0.90;;;27.50;75.20;;;;;;5100438;28;20438;-91
2022/09/08 14:18:00;;;;;;;1.10;0.80;;;27.50;75.10;;;;;;5075570;28;20826;-92
2022/09/08 14:20:38;;;;;;;1.10;1.00;;;27.50;75.20;;;;;;5076197;28;20483;-91
2022/09/08 14:23:20;;;;;;;1.43;0.83;;;27.50;75.20;;;;;;5075761;28;20532;-92
2022/09/08 14:25:50;;;;;;;2.10;0.90;;;27.50;75.10;;;;;;5075804;28;20904;-93
2022/09/08 14:28:19;;;;;;;1.10;0.90;;;27.50;75.20;;;;;;5076173;28;20448;-90
2022/09/08 14:30:59;;;;;;;1.50;1.20;;;27.50;75.10;;;;;;5075645;28;20479;-93
2022/09/08 14:33:33;;;;;;;1.83;1.03;;;27.50;75.10;;;;;;5076331;28;20433;-93
2022/09/08 14:36:34;;;;;;;1.50;1.00;;;27.50;75.00;;;;;;5075944;28;20946;-95
2022/09/08 14:39:16;;;;;;;1.60;1.00;;;27.50;74.90;;;;;;5071260;28;20484;-94
2022/09/08 14:41:51;;;;;;;1.00;0.90;;;27.50;75.10;;;;;;5076443;28;20790;-95
2022/09/08 14:44:36;;;;;;;0.90;0.80;;;27.50;75.10;;;;;;5077963;28;20440;-93
2022/09/08 14:47:05;;;;;;;1.00;0.90;;;27.50;74.90;;;;;;5086435;28;20444;-95
2022/09/08 14:50:01;;;;;;;1.00;0.90;;;27.50;75.00;;;;;;5076993;28;20440;-95
2022/09/08 14:52:47;;;;;;;1.97;1.00;;;27.50;74.80;;;;;;5075973;28;20471;-92
2022/09/08 14:55:23;;;;;;;1.17;0.90;;;27.50;74.80;;;;;;5075478;28;20441;-92
2022/09/08 14:57:54;;;;;;;2.17;0.80;;;27.50;74.80;;;;;;5075639;28;20437;-91
2022/09/08 15:00:25;;;;;;;1.00;0.90;;;27.50;74.80;;;;;;5076401;28;20916;-94
2022/09/08 15:02:55;;;;;;;1.47;0.80;;;27.50;74.70;;;;;;5075462;28;20432;-87
2022/09/08 15:05:25;;;;;;;0.80;0.70;;;27.50;74.60;;;;;;5077867;28;20460;-95
2022/09/08 15:07:57;;;;;;;1.00;0.90;;;27.50;74.60;;;;;;5083989;28;20428;-95
2022/09/08 15:10:34;;;;;;;1.73;0.70;;;27.50;74.70;;;;;;5079253;28;20487;-93
2022/09/08 15:13:17;;;;;;;1.00;0.90;;;27.50;74.50;;;;;;5069904;28;20970;-88
2022/09/08 15:15:45;;;;;;;1.00;0.90;;;27.50;74.50;;;;;;5074574;28;20445;-89
2022/09/08 15:18:28;;;;;;;1.67;0.90;;;27.40;74.50;;;;;;5074649;28;20444;-87
2022/09/08 18:53:29;;;;;;;1.30;0.80;;;27.10;73.10;;;;;;5080152;28;20470;-85
2022/09/08 18:56:16;;;;;;;1.10;1.00;;;27.10;73.40;;;;;;5074930;28;20441;-85
2022/09/08 18:58:58;;;;;;;5.03;0.90;;;27.20;73.30;;;;;;5074842;28;20456;-85
2022/09/08 19:01:38;;;;;;;0.90;0.80;;;27.20;73.30;;;;;;5074188;28;20444;-85
2022/09/08 19:04:13;;;;;;;1.73;0.90;;;27.20;73.20;;;;;;5074621;28;20967;-85
2022/09/08 19:06:54;;;;;;;1.20;0.90;;;27.20;73.10;;;;;;5074962;28;20436;-85
2022/09/08 19:09:50;;;;;;;1.90;0.87;;;27.20;73.10;;;;;;5074810;28;20441;-85
2022/09/08 19:12:31;;;;;;;1.30;0.97;;;27.20;73.00;;;;;;5072370;28;20844;-84
2022/09/08 19:15:01;;;;;;;1.53;0.90;;;27.10;73.00;;;;;;5074587;28;20451;-84
2022/09/08 19:18:03;;;;;;;2.30;1.10;;;27.10;73.00;;;;;;5074434;28;20441;-84
2022/09/08 19:20:35;;;;;;;1.20;0.80;;;27.20;73.10;;;;;;5069172;28;20480;-84
2022/09/08 19:23:06;;;;;;;1.00;0.80;;;27.20;73.10;;;;;;5092088;28;20480;-83
2022/09/08 19:25:39;;;;;;;2.40;1.07;;;27.20;73.20;;;;;;5075190;28;20447;-84
2022/09/08 19:28:20;;;;;;;0.97;0.80;;;27.20;73.30;;;;;;5077085;28;20433;-87
2022/09/08 19:30:56;;;;;;;0.97;0.80;;;27.20;73.30;;;;;;5075606;28;20475;-86
2022/09/08 19:33:34;;;;;;;1.60;0.90;;;27.20;73.40;;;;;;5074123;28;20969;-86
2022/09/08 19:36:07;;;;;;;1.10;1.00;;;27.20;73.30;;;;;;5074491;28;20440;-86
2022/09/08 19:38:39;;;;;;;1.27;0.87;;;27.20;73.30;;;;;;5074304;28;20444;-89
2022/09/08 19:41:22;;;;;;;1.30;0.90;;;27.20;73.30;;;;;;5074342;28;20484;-86
2022/09/08 19:44:14;;;;;;;1.20;0.80;;;27.20;73.40;;;;;;5074277;28;20535;-83
2022/09/08 19:46:51;;;;;;;2.07;0.87;;;27.30;73.60;;;;;;5074002;28;20521;-83
2022/09/08 19:49:51;;;;;;;2.23;1.00;;;27.20;73.60;;;;;;5073933;28;20450;-84
2022/09/08 19:52:27;;;;;;;1.30;1.10;;;27.20;73.50;;;;;;5042448;28;20537;-84
2022/09/08 19:54:57;;;;;;;1.20;1.00;;;27.20;73.50;;;;;;5073768;28;20535;-85
2022/09/08 19:57:28;;;;;;;1.17;1.00;;;27.20;73.50;;;;;;5073891;28;20448;-84
2022/09/08 20:00:03;;;;;;;0.93;0.83;;;27.30;73.50;;;;;;5073608;28;20488;-84
2022/09/08 20:02:37;;;;;;;2.43;1.00;;;27.30;73.50;;;;;;5073491;28;20498;-83
2022/09/08 20:05:17;;;;;;;2.53;0.90;;;27.20;73.40;;;;;;5073633;28;20463;-84
2022/09/08 20:07:55;;;;;;;1.00;0.80;;;27.30;73.40;;;;;;5073325;28;20532;-83
2022/09/08 20:10:42;;;;;;;1.20;1.10;;;27.30;73.50;;;;;;5073484;28;20441;-84
2022/09/08 20:13:18;;;;;;;2.70;0.93;;;27.30;73.50;;;;;;5073332;28;20970;-83
2022/09/08 20:15:58;;;;;;;1.00;0.90;;;27.30;73.50;;;;;;5073604;28;20805;-84
2022/09/08 20:18:42;;;;;;;1.10;1.00;;;27.30;73.50;;;;;;5073528;28;20452;-83
2022/09/08 20:21:38;;;;;;;1.00;0.80;;;27.30;73.50;;;;;;5073450;28;20520;-83
2022/09/08 20:24:36;;;;;;;1.00;0.90;;;27.20;74.30;;;;;;5066380;28;20452;-83
2022/09/08 20:27:15;;;;;;;1.40;1.20;;;27.30;73.60;;;;;;5053195;28;20444;-83
2022/09/08 20:29:55;;;;;;;1.67;0.97;;;27.20;73.60;;;;;;5073142;28;20484;-83
2022/09/08 20:32:44;;;;;;;4.20;1.03;;;27.20;73.60;;;;;;5073441;28;20448;-83
2022/09/08 20:35:23;;;;;;;1.20;1.00;;;27.30;73.60;;;;;;5073260;28;20531;-84
2022/09/08 20:38:17;;;;;;;1.53;1.00;;;27.30;73.60;;;;;;5073228;28;20441;-83
2022/09/08 20:40:45;;;;;;;1.10;0.80;;;27.30;73.50;;;;;;5073221;28;20488;-88
2022/09/08 20:43:24;;;;;;;0.90;0.70;;;27.30;73.60;;;;;;5073886;28;20459;-86
2022/09/08 20:45:59;;;;;;;0.87;0.80;;;27.30;73.50;;;;;;5082136;28;20869;-84
2022/09/08 20:48:31;;;;;;;1.67;1.03;;;27.30;73.60;;;;;;5093001;28;20934;-84
2022/09/08 20:51:13;;;;;;;3.13;0.77;;;27.30;73.60;;;;;;5095776;28;20467;-85
2022/09/08 20:54:07;;;;;;;1.00;0.80;;;27.30;73.50;;;;;;5099529;28;20438;-85
2022/09/08 20:56:41;;;;;;;1.10;0.80;;;27.30;73.40;;;;;;5093253;28;20496;-87
2022/09/08 20:59:16;;;;;;;1.27;0.87;;;27.30;73.40;;;;;;5093318;28;20534;-86
2022/09/08 21:01:46;;;;;;;1.20;0.80;;;27.20;73.90;;;;;;5093917;28;20444;-86
2022/09/08 21:04:22;;;;;;;2.13;0.97;;;27.20;73.80;;;;;;5117062;28;20444;-86
2022/09/08 21:06:50;;;;;;;2.40;0.80;;;27.30;73.60;;;;;;5117939;28;20499;-86
2022/09/08 21:09:27;;;;;;;0.90;0.80;;;27.20;73.50;;;;;;5114158;28;20456;-87
2022/09/08 21:12:05;;;;;;;1.57;0.93;;;27.30;73.30;;;;;;5093461;28;20506;-86
2022/09/08 21:14:41;;;;;;;3.77;1.00;;;27.30;73.30;;;;;;5093250;28;20435;-86
2022/09/08 21:17:18;;;;;;;1.00;0.83;;;27.30;73.20;;;;;;5093278;28;20444;-86
2022/09/08 21:19:52;;;;;;;0.80;0.70;;;27.30;73.10;;;;;;5093559;28;20495;-86
2022/09/08 21:22:34;;;;;;;1.03;0.77;;;27.30;73.10;;;;;;5093128;28;20455;-86
2022/09/08 21:25:11;;;;;;;1.03;0.80;;;27.30;73.00;;;;;;5094325;28;20496;-86
2022/09/08 21:27:43;;;;;;;1.50;0.80;;;27.30;73.00;;;;;;5097255;28;20443;-86
2022/09/08 21:30:15;;;;;;;0.80;0.63;;;27.30;73.80;;;;;;5097143;28;20452;-86
2022/09/08 21:32:58;;;;;;;1.00;0.87;;;27.30;72.90;;;;;;5097305;28;20432;-86
2022/09/08 21:35:32;;;;;;;1.33;0.80;;;27.30;72.70;;;;;;5096822;28;20938;-87
2022/09/08 21:38:06;;;;;;;0.90;0.77;;;27.30;72.80;;;;;;5096869;28;20804;-86
2022/09/08 21:40:50;;;;;;;0.80;0.80;;;27.30;72.80;;;;;;5096849;28;20475;-87
2022/09/08 21:43:20;;;;;;;0.90;0.70;;;27.30;72.70;;;;;;5096689;28;20439;-87
2022/09/08 21:45:51;;;;;;;1.43;0.80;;;27.20;72.70;;;;;;5096885;28;20440;-87
2022/09/08 21:48:24;;;;;;;1.53;1.13;;;27.30;72.70;;;;;;5096598;28;20443;-87
2022/09/08 21:50:57;;;;;;;0.90;0.80;;;27.30;72.60;;;;;;5096359;28;20459;-87
2022/09/08 21:53:35;;;;;;;1.30;1.00;;;27.30;72.60;;;;;;5096782;28;20447;-87
2022/09/08 21:56:10;;;;;;;0.80;0.70;;;27.30;72.60;;;;;;5097076;28;20431;-86
2022/09/08 21:58:41;;;;;;;0.80;0.70;;;27.20;72.60;;;;;;5096750;28;20427;-87
2022/09/08 22:01:21;;;;;;;1.57;0.90;;;27.20;72.50;;;;;;5096495;28;20479;-87
2022/09/08 22:03:51;;;;;;;1.07;0.83;;;27.30;72.60;;;;;;5096476;28;20423;-87
2022/09/08 22:06:22;;;;;;;1.20;0.80;;;27.20;72.60;;;;;;5096611;28;20440;-87
2022/09/08 22:09:00;;;;;;;0.80;0.70;;;27.30;72.60;;;;;;5096550;28;20469;-87
2022/09/08 22:11:32;;;;;;;1.13;0.90;;;27.20;72.60;;;;;;5096271;28;20497;-87
2022/09/08 22:14:06;;;;;;;1.10;1.00;;;27.20;72.50;;;;;;5096587;28;20768;-87
2022/09/08 22:16:41;;;;;;;0.80;0.73;;;27.20;72.50;;;;;;5096257;28;20444;-86
2022/09/08 22:19:27;;;;;;;0.80;0.70;;;27.20;72.50;;;;;;5096228;28;20815;-87
2022/09/08 22:22:03;;;;;;;1.20;0.83;;;27.30;72.50;;;;;;5095879;28;20509;-87
2022/09/08 22:24:42;;;;;;;0.93;0.80;;;27.20;72.60;;;;;;5096460;28;20436;-87
2022/09/08 22:27:17;;;;;;;3.73;0.70;;;27.20;72.60;;;;;;5096077;28;20476;-87
2022/09/08 22:29:52;;;;;;;0.90;0.80;;;27.20;72.60;;;;;;5096201;28;20442;-86
2022/09/08 22:32:26;;;;;;;0.90;0.80;;;27.20;72.60;;;;;;5095811;28;20900;-85
2022/09/08 22:35:00;;;;;;;1.00;0.70;;;27.20;72.60;;;;;;5096050;28;20451;-85
2022/09/08 22:37:33;;;;;;;1.00;0.80;;;27.20;72.70;;;;;;5095625;28;20480;-86
2022/09/08 22:40:19;;;;;;;0.90;0.63;;;27.20;72.70;;;;;;5095751;28;20448;-86
2022/09/08 22:42:59;;;;;;;0.80;0.70;;;27.30;72.70;;;;;;5095729;28;20440;-86
2022/09/08 22:45:30;;;;;;;0.93;0.80;;;27.20;72.60;;;;;;5095427;28;20436;-85
2022/09/08 22:48:07;;;;;;;1.20;0.70;;;27.20;72.60;;;;;;5095462;28;20946;-86
2022/09/08 22:50:41;;;;;;;0.80;0.70;;;27.20;72.60;;;;;;5095620;28;20460;-84
2022/09/08 22:53:22;;;;;;;1.10;0.80;;;27.20;72.70;;;;;;5095856;28;20432;-87
2022/09/08 22:55:54;;;;;;;0.80;0.70;;;27.20;72.70;;;;;;5096188;28;20443;-86
2022/09/08 22:58:24;;;;;;;1.37;0.80;;;27.20;72.80;;;;;;5095188;28;20947;-87
2022/09/08 23:01:03;;;;;;;0.80;0.70;;;27.20;72.80;;;;;;5095683;28;20483;-87
2022/09/08 23:03:45;;;;;;;1.23;0.83;;;27.20;72.80;;;;;;5095335;28;20437;-87
2022/09/08 23:06:22;;;;;;;0.77;0.60;;;27.20;72.80;;;;;;5095336;28;20443;-87
2022/09/08 23:08:58;;;;;;;0.90;0.80;;;27.20;72.70;;;;;;5095337;28;20429;-87
2022/09/08 23:11:30;;;;;;;0.80;0.70;;;27.20;72.70;;;;;;5095527;28;20475;-87
2022/09/08 23:14:01;;;;;;;0.80;0.60;;;27.20;72.60;;;;;;5095208;28;20436;-87
2022/09/08 23:16:34;;;;;;;1.07;0.70;;;27.20;72.50;;;;;;5095049;28;20444;-87
2022/09/08 23:19:08;;;;;;;0.97;0.87;;;27.20;72.50;;;;;;5095089;28;20443;-86
2022/09/08 23:21:40;;;;;;;0.90;0.70;;;27.20;72.50;;;;;;5094750;28;20541;-86
2022/09/08 23:24:31;;;;;;;0.80;0.70;;;27.20;72.70;;;;;;5095161;28;20507;-86
2022/09/08 23:27:04;;;;;;;0.80;0.70;;;27.20;72.60;;;;;;5094653;28;20461;-86
2022/09/08 23:29:43;;;;;;;0.77;0.60;;;27.20;72.80;;;;;;5094733;28;20530;-86
2022/09/08 23:32:15;;;;;;;0.83;0.70;;;27.20;72.80;;;;;;5094927;28;20466;-86
2022/09/08 23:34:52;;;;;;;0.80;0.60;;;27.20;72.70;;;;;;5094679;28;20531;-86
2022/09/08 23:37:22;;;;;;;1.00;0.70;;;27.20;72.70;;;;;;5094681;28;20442;-86
2022/09/08 23:40:01;;;;;;;0.80;0.73;;;27.20;72.80;;;;;;5094702;28;20463;-86
2022/09/08 23:42:34;;;;;;;0.80;0.70;;;27.20;72.80;;;;;;5094434;28;20954;-86
2022/09/08 23:45:02;;;;;;;0.80;0.60;;;27.20;72.80;;;;;;5094547;28;20436;-86
2022/09/08 23:47:32;;;;;;;0.80;0.60;;;27.20;72.80;;;;;;5093566;28;20444;-86
2022/09/08 23:50:03;;;;;;;0.97;0.60;;;27.20;72.80;;;;;;5094344;28;20904;-85
2022/09/08 23:52:34;;;;;;;0.80;0.70;;;27.20;72.80;;;;;;5093890;28;20838;-86
2022/09/08 23:55:03;;;;;;;0.70;0.60;;;27.20;72.80;;;;;;5094520;28;20435;-86
2022/09/08 23:57:30;;;;;;;0.70;0.60;;;27.20;72.80;;;;;;5093966;28;20451;-86
2022/09/08 23:59:58;;;;;;;0.70;0.60;;;27.20;72.80;;;;;;5094376;28;20459;-86
